sensor_id;sensor_type;location;lat;lon;timestamp;P1;durP1;ratioP1;P2;durP2;ratioP2
8399;SDS011;4237;47.030;15.396;2022-08-30T00:01:32;6.37;;;4.50;;
8399;SDS011;4237;47.030;15.396;2022-08-30T00:04:01;8.13;;;4.33;;
8399;SDS011;4237;47.030;15.396;2022-08-30T00:06:31;8.13;;;4.00;;
8399;SDS011;4237;47.030;15.396;2022-08-30T00:08:59;4.57;;;3.97;;
8399;SDS011;4237;47.030;15.396;2022-08-30T00:11:28;6.60;;;4.03;;
8399;SDS011;4237;47.030;15.396;2022-08-30T00:13:57;5.90;;;4.27;;
8399;SDS011;4237;47.030;15.396;2022-08-30T00:16:26;7.07;;;4.30;;
8399;SDS011;4237;47.030;15.396;2022-08-30T00:18:54;5.97;;;4.40;;
8399;SDS011;4237;47.030;15.396;2022-08-30T00:21:23;4.57;;;3.97;;
8399;SDS011;4237;47.030;15.396;2022-08-30T00:23:53;5.87;;;4.00;;
8399;SDS011;4237;47.030;15.396;2022-08-30T00:26:21;7.03;;;4.13;;
8399;SDS011;4237;47.030;15.396;2022-08-30T00:28:49;5.60;;;4.30;;
8399;SDS011;4237;47.030;15.396;2022-08-30T00:31:18;7.20;;;4.47;;
8399;SDS011;4237;47.030;15.396;2022-08-30T00:33:46;5.90;;;4.53;;
8399;SDS011;4237;47.030;15.396;2022-08-30T00:36:14;7.73;;;4.57;;
8399;SDS011;4237;47.030;15.396;2022-08-30T00:38:42;4.97;;;4.07;;
8399;SDS011;4237;47.030;15.396;2022-08-30T00:41:11;5.10;;;4.50;;
8399;SDS011;4237;47.030;15.396;2022-08-30T00:43:39;6.97;;;4.10;;
8399;SDS011;4237;47.030;15.396;2022-08-30T00:46:07;4.50;;;4.03;;
8399;SDS011;4237;47.030;15.396;2022-08-30T00:48:37;7.40;;;4.43;;
8399;SDS011;4237;47.030;15.396;2022-08-30T00:51:07;8.83;;;5.13;;
8399;SDS011;4237;47.030;15.396;2022-08-30T00:53:36;7.27;;;4.40;;
8399;SDS011;4237;47.030;15.396;2022-08-30T00:56:05;8.97;;;4.43;;
8399;SDS011;4237;47.030;15.396;2022-08-30T00:58:34;5.30;;;4.63;;
8399;SDS011;4237;47.030;15.396;2022-08-30T01:01:05;4.93;;;4.43;;
8399;SDS011;4237;47.030;15.396;2022-08-30T01:03:33;9.00;;;4.70;;
8399;SDS011;4237;47.030;15.396;2022-08-30T01:06:02;6.87;;;4.70;;
8399;SDS011;4237;47.030;15.396;2022-08-30T01:08:31;8.23;;;4.90;;
8399;SDS011;4237;47.030;15.396;2022-08-30T01:10:59;7.50;;;4.43;;
8399;SDS011;4237;47.030;15.396;2022-08-30T01:13:29;6.70;;;4.67;;
8399;SDS011;4237;47.030;15.396;2022-08-30T01:15:58;6.07;;;4.57;;
8399;SDS011;4237;47.030;15.396;2022-08-30T01:18:27;7.47;;;4.80;;
8399;SDS011;4237;47.030;15.396;2022-08-30T01:23:42;7.07;;;4.83;;
8399;SDS011;4237;47.030;15.396;2022-08-30T01:26:12;8.83;;;4.70;;
8399;SDS011;4237;47.030;15.396;2022-08-30T01:28:40;10.80;;;4.67;;
8399;SDS011;4237;47.030;15.396;2022-08-30T01:31:09;5.97;;;4.90;;
8399;SDS011;4237;47.030;15.396;2022-08-30T01:33:37;11.23;;;4.50;;
8399;SDS011;4237;47.030;15.396;2022-08-30T01:36:07;6.17;;;4.50;;
8399;SDS011;4237;47.030;15.396;2022-08-30T01:38:53;7.30;;;5.07;;
8399;SDS011;4237;47.030;15.396;2022-08-30T01:41:25;7.80;;;4.57;;
8399;SDS011;4237;47.030;15.396;2022-08-30T01:43:53;7.80;;;5.30;;
8399;SDS011;4237;47.030;15.396;2022-08-30T01:46:24;6.10;;;5.20;;
8399;SDS011;4237;47.030;15.396;2022-08-30T01:48:53;7.33;;;4.73;;
8399;SDS011;4237;47.030;15.396;2022-08-30T01:51:23;5.67;;;5.13;;
8399;SDS011;4237;47.030;15.396;2022-08-30T01:53:52;8.80;;;5.40;;
8399;SDS011;4237;47.030;15.396;2022-08-30T01:56:21;7.50;;;5.67;;
8399;SDS011;4237;47.030;15.396;2022-08-30T01:58:50;5.83;;;5.33;;
8399;SDS011;4237;47.030;15.396;2022-08-30T02:01:18;5.73;;;4.67;;
8399;SDS011;4237;47.030;15.396;2022-08-30T02:03:47;9.13;;;5.13;;
8399;SDS011;4237;47.030;15.396;2022-08-30T02:06:17;7.83;;;4.90;;
8399;SDS011;4237;47.030;15.396;2022-08-30T02:08:45;8.67;;;5.50;;
8399;SDS011;4237;47.030;15.396;2022-08-30T02:11:14;10.67;;;5.47;;
8399;SDS011;4237;47.030;15.396;2022-08-30T02:13:43;6.83;;;5.43;;
8399;SDS011;4237;47.030;15.396;2022-08-30T02:16:13;7.53;;;6.30;;
8399;SDS011;4237;47.030;15.396;2022-08-30T02:18:42;7.57;;;5.63;;
8399;SDS011;4237;47.030;15.396;2022-08-30T02:21:10;11.50;;;5.77;;
8399;SDS011;4237;47.030;15.396;2022-08-30T02:23:39;7.90;;;5.73;;
8399;SDS011;4237;47.030;15.396;2022-08-30T02:26:08;9.07;;;6.23;;
8399;SDS011;4237;47.030;15.396;2022-08-30T02:28:36;6.97;;;6.20;;
8399;SDS011;4237;47.030;15.396;2022-08-30T02:31:06;6.50;;;5.53;;
8399;SDS011;4237;47.030;15.396;2022-08-30T02:33:35;6.47;;;5.87;;
8399;SDS011;4237;47.030;15.396;2022-08-30T02:36:04;8.27;;;5.40;;
8399;SDS011;4237;47.030;15.396;2022-08-30T02:38:33;7.10;;;5.80;;
8399;SDS011;4237;47.030;15.396;2022-08-30T02:41:02;8.87;;;6.23;;
8399;SDS011;4237;47.030;15.396;2022-08-30T02:43:30;10.57;;;5.77;;
8399;SDS011;4237;47.030;15.396;2022-08-30T02:45:58;7.53;;;5.47;;
8399;SDS011;4237;47.030;15.396;2022-08-30T02:48:26;13.67;;;5.87;;
8399;SDS011;4237;47.030;15.396;2022-08-30T02:50:54;7.90;;;5.83;;
8399;SDS011;4237;47.030;15.396;2022-08-30T02:53:23;6.50;;;5.57;;
8399;SDS011;4237;47.030;15.396;2022-08-30T02:55:51;7.57;;;6.03;;
8399;SDS011;4237;47.030;15.396;2022-08-30T02:58:19;8.47;;;5.60;;
8399;SDS011;4237;47.030;15.396;2022-08-30T03:00:47;8.73;;;5.63;;
8399;SDS011;4237;47.030;15.396;2022-08-30T03:03:15;9.90;;;6.03;;
8399;SDS011;4237;47.030;15.396;2022-08-30T03:05:44;7.80;;;5.43;;
8399;SDS011;4237;47.030;15.396;2022-08-30T03:08:12;7.93;;;5.67;;
8399;SDS011;4237;47.030;15.396;2022-08-30T03:10:40;14.73;;;6.30;;
8399;SDS011;4237;47.030;15.396;2022-08-30T03:13:08;10.07;;;5.93;;
8399;SDS011;4237;47.030;15.396;2022-08-30T03:15:37;9.53;;;6.00;;
8399;SDS011;4237;47.030;15.396;2022-08-30T03:18:06;11.07;;;6.10;;
8399;SDS011;4237;47.030;15.396;2022-08-30T03:20:36;9.57;;;5.50;;
8399;SDS011;4237;47.030;15.396;2022-08-30T03:23:05;11.40;;;5.43;;
8399;SDS011;4237;47.030;15.396;2022-08-30T03:25:33;11.20;;;5.80;;
8399;SDS011;4237;47.030;15.396;2022-08-30T03:28:02;13.40;;;5.77;;
8399;SDS011;4237;47.030;15.396;2022-08-30T03:30:30;12.83;;;5.80;;
8399;SDS011;4237;47.030;15.396;2022-08-30T03:32:59;14.33;;;6.17;;
8399;SDS011;4237;47.030;15.396;2022-08-30T03:35:27;11.47;;;5.83;;
8399;SDS011;4237;47.030;15.396;2022-08-30T03:37:55;8.90;;;6.30;;
8399;SDS011;4237;47.030;15.396;2022-08-30T03:40:25;12.47;;;6.50;;
8399;SDS011;4237;47.030;15.396;2022-08-30T03:42:54;7.83;;;6.23;;
8399;SDS011;4237;47.030;15.396;2022-08-30T03:45:22;12.03;;;6.90;;
8399;SDS011;4237;47.030;15.396;2022-08-30T03:47:50;10.47;;;6.57;;
8399;SDS011;4237;47.030;15.396;2022-08-30T03:50:19;8.83;;;6.20;;
8399;SDS011;4237;47.030;15.396;2022-08-30T03:52:47;10.87;;;6.43;;
8399;SDS011;4237;47.030;15.396;2022-08-30T03:55:15;11.60;;;6.70;;
8399;SDS011;4237;47.030;15.396;2022-08-30T03:57:44;7.63;;;6.63;;
8399;SDS011;4237;47.030;15.396;2022-08-30T04:00:13;9.53;;;6.67;;
8399;SDS011;4237;47.030;15.396;2022-08-30T04:02:41;10.93;;;6.47;;
8399;SDS011;4237;47.030;15.396;2022-08-30T04:05:10;15.20;;;6.57;;
8399;SDS011;4237;47.030;15.396;2022-08-30T04:07:38;9.43;;;6.57;;
8399;SDS011;4237;47.030;15.396;2022-08-30T04:10:07;9.53;;;6.77;;
8399;SDS011;4237;47.030;15.396;2022-08-30T04:12:36;14.43;;;6.37;;
8399;SDS011;4237;47.030;15.396;2022-08-30T04:15:05;8.57;;;6.67;;
8399;SDS011;4237;47.030;15.396;2022-08-30T04:17:35;13.87;;;6.37;;
8399;SDS011;4237;47.030;15.396;2022-08-30T04:20:05;8.27;;;6.40;;
8399;SDS011;4237;47.030;15.396;2022-08-30T04:22:33;9.47;;;7.10;;
8399;SDS011;4237;47.030;15.396;2022-08-30T04:25:03;11.87;;;6.43;;
8399;SDS011;4237;47.030;15.396;2022-08-30T04:27:31;13.33;;;6.57;;
8399;SDS011;4237;47.030;15.396;2022-08-30T04:30:00;11.90;;;6.90;;
8399;SDS011;4237;47.030;15.396;2022-08-30T04:32:28;12.90;;;6.73;;
8399;SDS011;4237;47.030;15.396;2022-08-30T04:34:57;10.77;;;6.97;;
8399;SDS011;4237;47.030;15.396;2022-08-30T04:37:26;10.30;;;6.90;;
8399;SDS011;4237;47.030;15.396;2022-08-30T04:39:55;10.43;;;6.63;;
8399;SDS011;4237;47.030;15.396;2022-08-30T04:42:23;8.17;;;6.60;;
8399;SDS011;4237;47.030;15.396;2022-08-30T04:44:52;10.10;;;6.83;;
8399;SDS011;4237;47.030;15.396;2022-08-30T04:47:20;9.90;;;6.90;;
8399;SDS011;4237;47.030;15.396;2022-08-30T04:49:48;10.23;;;7.73;;
8399;SDS011;4237;47.030;15.396;2022-08-30T04:52:17;11.17;;;7.43;;
8399;SDS011;4237;47.030;15.396;2022-08-30T04:54:45;9.93;;;6.80;;
8399;SDS011;4237;47.030;15.396;2022-08-30T04:57:13;9.10;;;6.30;;
8399;SDS011;4237;47.030;15.396;2022-08-30T04:59:42;8.47;;;7.30;;
8399;SDS011;4237;47.030;15.396;2022-08-30T05:02:10;10.77;;;7.03;;
8399;SDS011;4237;47.030;15.396;2022-08-30T05:04:38;8.43;;;6.80;;
8399;SDS011;4237;47.030;15.396;2022-08-30T05:07:11;15.17;;;7.60;;
8399;SDS011;4237;47.030;15.396;2022-08-30T05:09:40;11.57;;;6.80;;
8399;SDS011;4237;47.030;15.396;2022-08-30T05:12:08;9.53;;;6.70;;
8399;SDS011;4237;47.030;15.396;2022-08-30T05:14:36;13.00;;;7.17;;
8399;SDS011;4237;47.030;15.396;2022-08-30T05:17:04;8.80;;;7.13;;
8399;SDS011;4237;47.030;15.396;2022-08-30T05:19:33;8.57;;;7.63;;
8399;SDS011;4237;47.030;15.396;2022-08-30T05:22:01;7.50;;;6.70;;
8399;SDS011;4237;47.030;15.396;2022-08-30T05:24:29;9.43;;;6.97;;
8399;SDS011;4237;47.030;15.396;2022-08-30T05:26:58;9.73;;;6.73;;
8399;SDS011;4237;47.030;15.396;2022-08-30T05:29:26;13.27;;;6.87;;
8399;SDS011;4237;47.030;15.396;2022-08-30T05:31:55;8.27;;;6.60;;
8399;SDS011;4237;47.030;15.396;2022-08-30T05:34:24;9.73;;;7.63;;
8399;SDS011;4237;47.030;15.396;2022-08-30T05:36:52;8.90;;;6.80;;
8399;SDS011;4237;47.030;15.396;2022-08-30T05:39:20;10.97;;;6.17;;
8399;SDS011;4237;47.030;15.396;2022-08-30T05:41:48;9.07;;;6.93;;
8399;SDS011;4237;47.030;15.396;2022-08-30T05:44:16;7.67;;;5.83;;
8399;SDS011;4237;47.030;15.396;2022-08-30T05:46:44;7.53;;;5.63;;
8399;SDS011;4237;47.030;15.396;2022-08-30T05:49:14;8.80;;;5.47;;
8399;SDS011;4237;47.030;15.396;2022-08-30T05:51:42;10.33;;;5.40;;
8399;SDS011;4237;47.030;15.396;2022-08-30T05:54:11;9.73;;;5.63;;
8399;SDS011;4237;47.030;15.396;2022-08-30T05:56:41;7.47;;;5.90;;
8399;SDS011;4237;47.030;15.396;2022-08-30T05:59:10;10.53;;;5.97;;
8399;SDS011;4237;47.030;15.396;2022-08-30T06:01:40;8.20;;;6.10;;
8399;SDS011;4237;47.030;15.396;2022-08-30T06:04:09;10.80;;;6.40;;
8399;SDS011;4237;47.030;15.396;2022-08-30T06:06:38;8.43;;;6.07;;
8399;SDS011;4237;47.030;15.396;2022-08-30T06:09:07;10.97;;;6.90;;
8399;SDS011;4237;47.030;15.396;2022-08-30T06:11:36;9.77;;;6.00;;
8399;SDS011;4237;47.030;15.396;2022-08-30T06:14:04;6.80;;;6.10;;
8399;SDS011;4237;47.030;15.396;2022-08-30T06:16:33;9.83;;;6.00;;
8399;SDS011;4237;47.030;15.396;2022-08-30T06:19:01;12.03;;;6.07;;
8399;SDS011;4237;47.030;15.396;2022-08-30T06:21:31;10.47;;;5.80;;
8399;SDS011;4237;47.030;15.396;2022-08-30T06:24:01;8.97;;;5.77;;
8399;SDS011;4237;47.030;15.396;2022-08-30T06:26:29;9.17;;;5.40;;
8399;SDS011;4237;47.030;15.396;2022-08-30T06:28:58;13.03;;;5.60;;
8399;SDS011;4237;47.030;15.396;2022-08-30T06:31:26;13.30;;;6.20;;
8399;SDS011;4237;47.030;15.396;2022-08-30T06:33:54;6.70;;;5.00;;
8399;SDS011;4237;47.030;15.396;2022-08-30T06:36:23;9.08;;;5.03;;
8399;SDS011;4237;47.030;15.396;2022-08-30T06:38:53;16.12;;;5.40;;
8399;SDS011;4237;47.030;15.396;2022-08-30T06:41:22;10.25;;;5.47;;
8399;SDS011;4237;47.030;15.396;2022-08-30T06:43:51;13.18;;;4.75;;
8399;SDS011;4237;47.030;15.396;2022-08-30T06:46:27;10.68;;;5.33;;
8399;SDS011;4237;47.030;15.396;2022-08-30T06:48:55;8.65;;;4.97;;
8399;SDS011;4237;47.030;15.396;2022-08-30T06:51:25;5.33;;;4.72;;
8399;SDS011;4237;47.030;15.396;2022-08-30T06:53:53;6.33;;;5.25;;
8399;SDS011;4237;47.030;15.396;2022-08-30T06:56:22;7.12;;;4.75;;
8399;SDS011;4237;47.030;15.396;2022-08-30T06:58:51;11.48;;;4.78;;
8399;SDS011;4237;47.030;15.396;2022-08-30T07:01:22;7.08;;;4.45;;
8399;SDS011;4237;47.030;15.396;2022-08-30T07:03:50;9.20;;;5.08;;
8399;SDS011;4237;47.030;15.396;2022-08-30T07:06:19;7.47;;;5.45;;
8399;SDS011;4237;47.030;15.396;2022-08-30T07:08:47;6.33;;;4.87;;
8399;SDS011;4237;47.030;15.396;2022-08-30T07:11:27;7.62;;;5.47;;
8399;SDS011;4237;47.030;15.396;2022-08-30T07:13:56;6.28;;;5.08;;
8399;SDS011;4237;47.030;15.396;2022-08-30T07:16:25;9.88;;;5.08;;
8399;SDS011;4237;47.030;15.396;2022-08-30T07:18:54;10.50;;;5.37;;
8399;SDS011;4237;47.030;15.396;2022-08-30T07:23:53;8.45;;;4.25;;
8399;SDS011;4237;47.030;15.396;2022-08-30T07:26:28;4.75;;;4.12;;
8399;SDS011;4237;47.030;15.396;2022-08-30T07:28:52;6.05;;;4.70;;
8399;SDS011;4237;47.030;15.396;2022-08-30T07:31:20;8.40;;;5.33;;
8399;SDS011;4237;47.030;15.396;2022-08-30T07:33:49;9.38;;;4.80;;
8399;SDS011;4237;47.030;15.396;2022-08-30T07:36:17;11.75;;;4.97;;
8399;SDS011;4237;47.030;15.396;2022-08-30T07:38:48;8.48;;;5.45;;
8399;SDS011;4237;47.030;15.396;2022-08-30T07:41:19;11.12;;;5.37;;
8399;SDS011;4237;47.030;15.396;2022-08-30T07:43:47;13.10;;;5.67;;
8399;SDS011;4237;47.030;15.396;2022-08-30T07:46:15;13.58;;;6.40;;
8399;SDS011;4237;47.030;15.396;2022-08-30T07:48:45;10.25;;;5.45;;
8399;SDS011;4237;47.030;15.396;2022-08-30T07:51:15;6.33;;;5.42;;
8399;SDS011;4237;47.030;15.396;2022-08-30T07:53:43;7.10;;;4.50;;
8399;SDS011;4237;47.030;15.396;2022-08-30T07:56:11;8.60;;;5.00;;
8399;SDS011;4237;47.030;15.396;2022-08-30T07:58:40;7.87;;;4.65;;
8399;SDS011;4237;47.030;15.396;2022-08-30T08:01:09;4.95;;;4.25;;
8399;SDS011;4237;47.030;15.396;2022-08-30T08:03:38;5.08;;;4.55;;
8399;SDS011;4237;47.030;15.396;2022-08-30T08:06:07;11.60;;;4.45;;
8399;SDS011;4237;47.030;15.396;2022-08-30T08:08:36;8.65;;;4.70;;
8399;SDS011;4237;47.030;15.396;2022-08-30T08:11:07;5.45;;;3.92;;
8399;SDS011;4237;47.030;15.396;2022-08-30T08:13:35;9.40;;;3.75;;
8399;SDS011;4237;47.030;15.396;2022-08-30T08:16:04;8.58;;;4.70;;
8399;SDS011;4237;47.030;15.396;2022-08-30T08:18:33;8.93;;;4.75;;
8399;SDS011;4237;47.030;15.396;2022-08-30T08:21:01;11.18;;;4.50;;
8399;SDS011;4237;47.030;15.396;2022-08-30T08:23:30;5.85;;;3.80;;
8399;SDS011;4237;47.030;15.396;2022-08-30T08:25:58;9.55;;;4.35;;
8399;SDS011;4237;47.030;15.396;2022-08-30T08:28:27;6.87;;;3.80;;
8399;SDS011;4237;47.030;15.396;2022-08-30T08:30:55;4.25;;;3.80;;
8399;SDS011;4237;47.030;15.396;2022-08-30T08:33:23;4.70;;;3.55;;
8399;SDS011;4237;47.030;15.396;2022-08-30T08:35:51;6.10;;;4.20;;
8399;SDS011;4237;47.030;15.396;2022-08-30T08:38:20;11.53;;;3.85;;
8399;SDS011;4237;47.030;15.396;2022-08-30T08:40:54;7.53;;;3.83;;
8399;SDS011;4237;47.030;15.396;2022-08-30T08:43:21;6.45;;;3.90;;
8399;SDS011;4237;47.030;15.396;2022-08-30T08:50:51;4.78;;;3.25;;
8399;SDS011;4237;47.030;15.396;2022-08-30T08:53:37;5.70;;;3.60;;
8399;SDS011;4237;47.030;15.396;2022-08-30T08:56:09;7.95;;;3.45;;
8399;SDS011;4237;47.030;15.396;2022-08-30T08:58:42;6.60;;;3.42;;
8399;SDS011;4237;47.030;15.396;2022-08-30T09:01:11;5.65;;;3.67;;
8399;SDS011;4237;47.030;15.396;2022-08-30T09:03:42;6.78;;;3.37;;
8399;SDS011;4237;47.030;15.396;2022-08-30T09:06:17;5.95;;;3.75;;
8399;SDS011;4237;47.030;15.396;2022-08-30T09:08:40;5.83;;;3.72;;
8399;SDS011;4237;47.030;15.396;2022-08-30T09:11:08;3.47;;;3.17;;
8399;SDS011;4237;47.030;15.396;2022-08-30T09:13:40;4.03;;;3.30;;
8399;SDS011;4237;47.030;15.396;2022-08-30T09:16:08;4.58;;;3.25;;
8399;SDS011;4237;47.030;15.396;2022-08-30T09:18:46;7.28;;;3.17;;
8399;SDS011;4237;47.030;15.396;2022-08-30T09:21:19;5.90;;;3.37;;
8399;SDS011;4237;47.030;15.396;2022-08-30T09:23:53;3.70;;;3.25;;
8399;SDS011;4237;47.030;15.396;2022-08-30T09:26:26;4.15;;;3.40;;
8399;SDS011;4237;47.030;15.396;2022-08-30T09:28:49;6.45;;;3.45;;
8399;SDS011;4237;47.030;15.396;2022-08-30T09:31:19;8.13;;;3.62;;
8399;SDS011;4237;47.030;15.396;2022-08-30T09:36:38;3.40;;;3.15;;
8399;SDS011;4237;47.030;15.396;2022-08-30T09:39:04;4.17;;;3.10;;
8399;SDS011;4237;47.030;15.396;2022-08-30T09:41:36;6.30;;;3.90;;
8399;SDS011;4237;47.030;15.396;2022-08-30T09:44:13;4.00;;;2.90;;
8399;SDS011;4237;47.030;15.396;2022-08-30T09:46:45;3.47;;;3.08;;
8399;SDS011;4237;47.030;15.396;2022-08-30T09:52:08;6.83;;;3.58;;
8399;SDS011;4237;47.030;15.396;2022-08-30T09:54:37;6.60;;;3.30;;
8399;SDS011;4237;47.030;15.396;2022-08-30T10:02:40;6.62;;;3.20;;
8399;SDS011;4237;47.030;15.396;2022-08-30T10:07:56;5.00;;;3.55;;
8399;SDS011;4237;47.030;15.396;2022-08-30T10:13:32;5.35;;;3.25;;
8399;SDS011;4237;47.030;15.396;2022-08-30T10:15:31;9.98;;;3.37;;
8399;SDS011;4237;47.030;15.396;2022-08-30T10:18:02;5.83;;;3.65;;
8399;SDS011;4237;47.030;15.396;2022-08-30T10:20:40;9.00;;;3.87;;
8399;SDS011;4237;47.030;15.396;2022-08-30T10:25:39;7.40;;;3.42;;
8399;SDS011;4237;47.030;15.396;2022-08-30T10:30:50;4.08;;;3.58;;
8399;SDS011;4237;47.030;15.396;2022-08-30T10:33:20;3.33;;;3.02;;
8399;SDS011;4237;47.030;15.396;2022-08-30T10:35:56;3.55;;;3.20;;
8399;SDS011;4237;47.030;15.396;2022-08-30T10:38:23;6.35;;;3.20;;
8399;SDS011;4237;47.030;15.396;2022-08-30T10:40:51;4.95;;;3.22;;
8399;SDS011;4237;47.030;15.396;2022-08-30T10:46:10;5.37;;;3.37;;
8399;SDS011;4237;47.030;15.396;2022-08-30T10:48:40;6.25;;;3.20;;
8399;SDS011;4237;47.030;15.396;2022-08-30T10:51:56;6.10;;;3.30;;
8399;SDS011;4237;47.030;15.396;2022-08-30T10:53:45;3.65;;;3.20;;
8399;SDS011;4237;47.030;15.396;2022-08-30T10:56:15;4.78;;;2.95;;
8399;SDS011;4237;47.030;15.396;2022-08-30T10:58:44;4.15;;;3.02;;
8399;SDS011;4237;47.030;15.396;2022-08-30T11:09:45;3.47;;;3.17;;
8399;SDS011;4237;47.030;15.396;2022-08-30T11:14:46;5.58;;;3.58;;
8399;SDS011;4237;47.030;15.396;2022-08-30T11:17:24;5.70;;;3.10;;
8399;SDS011;4237;47.030;15.396;2022-08-30T11:19:47;4.50;;;3.50;;
8399;SDS011;4237;47.030;15.396;2022-08-30T11:33:03;4.33;;;3.10;;
8399;SDS011;4237;47.030;15.396;2022-08-30T11:35:39;7.65;;;3.25;;
8399;SDS011;4237;47.030;15.396;2022-08-30T11:38:11;3.80;;;3.17;;
8399;SDS011;4237;47.030;15.396;2022-08-30T11:40:47;4.30;;;2.98;;
8399;SDS011;4237;47.030;15.396;2022-08-30T11:46:44;3.45;;;2.90;;
8399;SDS011;4237;47.030;15.396;2022-08-30T11:48:39;4.97;;;3.25;;
8399;SDS011;4237;47.030;15.396;2022-08-30T11:50:59;4.25;;;2.90;;
8399;SDS011;4237;47.030;15.396;2022-08-30T11:56:18;4.12;;;2.72;;
8399;SDS011;4237;47.030;15.396;2022-08-30T11:58:53;9.68;;;2.92;;
8399;SDS011;4237;47.030;15.396;2022-08-30T12:01:31;5.17;;;3.37;;
8399;SDS011;4237;47.030;15.396;2022-08-30T12:03:57;4.35;;;3.05;;
8399;SDS011;4237;47.030;15.396;2022-08-30T12:06:42;4.42;;;2.67;;
8399;SDS011;4237;47.030;15.396;2022-08-30T12:09:11;5.97;;;3.15;;
8399;SDS011;4237;47.030;15.396;2022-08-30T12:14:05;5.35;;;2.90;;
8399;SDS011;4237;47.030;15.396;2022-08-30T12:16:42;3.37;;;3.00;;
8399;SDS011;4237;47.030;15.396;2022-08-30T12:19:15;3.52;;;2.98;;
8399;SDS011;4237;47.030;15.396;2022-08-30T12:21:53;5.55;;;2.83;;
8399;SDS011;4237;47.030;15.396;2022-08-30T12:24:19;3.80;;;3.00;;
8399;SDS011;4237;47.030;15.396;2022-08-30T12:26:47;2.92;;;2.72;;
8399;SDS011;4237;47.030;15.396;2022-08-30T12:29:23;5.75;;;2.90;;
8399;SDS011;4237;47.030;15.396;2022-08-30T12:31:59;4.28;;;2.87;;
8399;SDS011;4237;47.030;15.396;2022-08-30T12:34:29;3.60;;;2.80;;
8399;SDS011;4237;47.030;15.396;2022-08-30T12:37:05;5.80;;;3.00;;
8399;SDS011;4237;47.030;15.396;2022-08-30T12:39:36;3.52;;;2.98;;
8399;SDS011;4237;47.030;15.396;2022-08-30T12:42:09;4.22;;;2.67;;
8399;SDS011;4237;47.030;15.396;2022-08-30T12:44:39;3.42;;;3.12;;
8399;SDS011;4237;47.030;15.396;2022-08-30T12:47:08;4.35;;;2.98;;
8399;SDS011;4237;47.030;15.396;2022-08-30T12:49:39;4.90;;;2.83;;
8399;SDS011;4237;47.030;15.396;2022-08-30T12:53:10;2.98;;;2.70;;
8399;SDS011;4237;47.030;15.396;2022-08-30T12:54:46;3.92;;;3.40;;
8399;SDS011;4237;47.030;15.396;2022-08-30T12:57:33;7.35;;;2.65;;
8399;SDS011;4237;47.030;15.396;2022-08-30T13:02:16;8.15;;;3.12;;
8399;SDS011;4237;47.030;15.396;2022-08-30T13:04:44;4.87;;;3.20;;
8399;SDS011;4237;47.030;15.396;2022-08-30T13:07:32;3.17;;;2.85;;
8399;SDS011;4237;47.030;15.396;2022-08-30T13:10:06;4.15;;;3.55;;
8399;SDS011;4237;47.030;15.396;2022-08-30T13:12:34;4.83;;;3.10;;
8399;SDS011;4237;47.030;15.396;2022-08-30T13:15:40;5.15;;;3.05;;
8399;SDS011;4237;47.030;15.396;2022-08-30T13:17:40;4.33;;;3.30;;
8399;SDS011;4237;47.030;15.396;2022-08-30T13:22:42;4.50;;;3.17;;
8399;SDS011;4237;47.030;15.396;2022-08-30T13:25:10;3.80;;;3.30;;
8399;SDS011;4237;47.030;15.396;2022-08-30T13:27:39;5.58;;;3.20;;
8399;SDS011;4237;47.030;15.396;2022-08-30T13:30:08;3.95;;;3.42;;
8399;SDS011;4237;47.030;15.396;2022-08-30T13:32:36;4.30;;;3.10;;
8399;SDS011;4237;47.030;15.396;2022-08-30T13:35:05;3.15;;;2.85;;
8399;SDS011;4237;47.030;15.396;2022-08-30T13:37:35;5.42;;;3.30;;
8399;SDS011;4237;47.030;15.396;2022-08-30T13:40:04;5.70;;;3.17;;
8399;SDS011;4237;47.030;15.396;2022-08-30T13:42:32;4.55;;;3.37;;
8399;SDS011;4237;47.030;15.396;2022-08-30T13:45:03;3.85;;;3.20;;
8399;SDS011;4237;47.030;15.396;2022-08-30T13:47:31;3.30;;;2.92;;
8399;SDS011;4237;47.030;15.396;2022-08-30T13:49:59;4.53;;;3.08;;
8399;SDS011;4237;47.030;15.396;2022-08-30T13:52:28;4.45;;;3.45;;
8399;SDS011;4237;47.030;15.396;2022-08-30T13:54:57;7.70;;;3.10;;
8399;SDS011;4237;47.030;15.396;2022-08-30T13:57:26;4.55;;;3.10;;
8399;SDS011;4237;47.030;15.396;2022-08-30T13:59:54;4.40;;;3.02;;
8399;SDS011;4237;47.030;15.396;2022-08-30T14:02:23;4.05;;;3.25;;
8399;SDS011;4237;47.030;15.396;2022-08-30T14:04:51;5.30;;;3.00;;
8399;SDS011;4237;47.030;15.396;2022-08-30T14:07:19;6.45;;;3.27;;
8399;SDS011;4237;47.030;15.396;2022-08-30T14:09:47;6.10;;;3.33;;
8399;SDS011;4237;47.030;15.396;2022-08-30T14:12:16;4.75;;;3.40;;
8399;SDS011;4237;47.030;15.396;2022-08-30T14:14:44;4.22;;;2.85;;
8399;SDS011;4237;47.030;15.396;2022-08-30T14:17:12;6.37;;;3.08;;
8399;SDS011;4237;47.030;15.396;2022-08-30T14:19:40;3.58;;;2.92;;
8399;SDS011;4237;47.030;15.396;2022-08-30T14:22:08;3.83;;;2.70;;
8399;SDS011;4237;47.030;15.396;2022-08-30T14:24:37;6.40;;;2.90;;
8399;SDS011;4237;47.030;15.396;2022-08-30T14:27:05;7.10;;;3.02;;
8399;SDS011;4237;47.030;15.396;2022-08-30T14:29:33;5.60;;;2.90;;
8399;SDS011;4237;47.030;15.396;2022-08-30T14:32:02;4.62;;;3.05;;
8399;SDS011;4237;47.030;15.396;2022-08-30T14:34:32;2.98;;;2.58;;
8399;SDS011;4237;47.030;15.396;2022-08-30T14:37:00;5.60;;;2.95;;
8399;SDS011;4237;47.030;15.396;2022-08-30T14:39:29;3.47;;;2.87;;
8399;SDS011;4237;47.030;15.396;2022-08-30T14:41:59;3.77;;;2.90;;
8399;SDS011;4237;47.030;15.396;2022-08-30T14:44:28;4.70;;;3.05;;
8399;SDS011;4237;47.030;15.396;2022-08-30T14:46:56;4.12;;;3.08;;
8399;SDS011;4237;47.030;15.396;2022-08-30T14:49:24;3.75;;;2.80;;
8399;SDS011;4237;47.030;15.396;2022-08-30T14:51:53;3.95;;;3.20;;
8399;SDS011;4237;47.030;15.396;2022-08-30T14:54:23;5.90;;;2.90;;
8399;SDS011;4237;47.030;15.396;2022-08-30T14:56:51;3.95;;;2.87;;
8399;SDS011;4237;47.030;15.396;2022-08-30T14:59:20;6.50;;;3.30;;
8399;SDS011;4237;47.030;15.396;2022-08-30T15:01:48;7.10;;;3.33;;
8399;SDS011;4237;47.030;15.396;2022-08-30T15:04:17;3.37;;;2.98;;
8399;SDS011;4237;47.030;15.396;2022-08-30T15:06:47;4.47;;;3.12;;
8399;SDS011;4237;47.030;15.396;2022-08-30T15:09:18;3.33;;;3.02;;
8399;SDS011;4237;47.030;15.396;2022-08-30T15:11:45;3.90;;;3.30;;
8399;SDS011;4237;47.030;15.396;2022-08-30T15:14:14;4.80;;;2.87;;
8399;SDS011;4237;47.030;15.396;2022-08-30T15:16:42;3.75;;;2.98;;
8399;SDS011;4237;47.030;15.396;2022-08-30T15:19:11;6.00;;;3.27;;
8399;SDS011;4237;47.030;15.396;2022-08-30T15:21:41;4.50;;;3.35;;
8399;SDS011;4237;47.030;15.396;2022-08-30T15:24:10;3.33;;;3.02;;
8399;SDS011;4237;47.030;15.396;2022-08-30T15:26:39;5.20;;;3.15;;
8399;SDS011;4237;47.030;15.396;2022-08-30T15:29:10;5.97;;;3.45;;
8399;SDS011;4237;47.030;15.396;2022-08-30T15:31:38;5.25;;;3.17;;
8399;SDS011;4237;47.030;15.396;2022-08-30T15:34:08;4.12;;;3.40;;
8399;SDS011;4237;47.030;15.396;2022-08-30T15:36:37;5.92;;;2.87;;
8399;SDS011;4237;47.030;15.396;2022-08-30T15:39:06;4.50;;;2.95;;
8399;SDS011;4237;47.030;15.396;2022-08-30T15:41:34;8.03;;;3.47;;
8399;SDS011;4237;47.030;15.396;2022-08-30T15:44:02;3.40;;;3.10;;
8399;SDS011;4237;47.030;15.396;2022-08-30T15:46:36;3.80;;;2.90;;
8399;SDS011;4237;47.030;15.396;2022-08-30T15:49:03;5.93;;;3.47;;
8399;SDS011;4237;47.030;15.396;2022-08-30T15:51:31;3.97;;;3.67;;
8399;SDS011;4237;47.030;15.396;2022-08-30T15:53:59;5.30;;;3.63;;
8399;SDS011;4237;47.030;15.396;2022-08-30T15:56:28;5.10;;;3.53;;
8399;SDS011;4237;47.030;15.396;2022-08-30T15:58:56;4.87;;;3.47;;
8399;SDS011;4237;47.030;15.396;2022-08-30T16:01:24;7.73;;;3.73;;
8399;SDS011;4237;47.030;15.396;2022-08-30T16:03:53;4.07;;;3.30;;
8399;SDS011;4237;47.030;15.396;2022-08-30T16:06:25;5.40;;;3.20;;
8399;SDS011;4237;47.030;15.396;2022-08-30T16:08:54;5.57;;;3.37;;
8399;SDS011;4237;47.030;15.396;2022-08-30T16:11:23;6.43;;;3.70;;
8399;SDS011;4237;47.030;15.396;2022-08-30T16:13:52;4.13;;;3.47;;
8399;SDS011;4237;47.030;15.396;2022-08-30T16:16:21;6.40;;;3.80;;
8399;SDS011;4237;47.030;15.396;2022-08-30T16:18:50;7.57;;;3.40;;
8399;SDS011;4237;47.030;15.396;2022-08-30T16:21:20;3.83;;;3.43;;
8399;SDS011;4237;47.030;15.396;2022-08-30T16:23:48;5.67;;;3.30;;